Time;durP1;ratioP1;P1;durP2;ratioP2;P2;SDS_P1;SDS_P2;PMS_P1;PMS_P2;Temp;Humidity;BMP_temperature;BMP_pressure;BME280_temperature;BME280_humidity;BME280_pressure;Samples;Min_cycle;Max_cycle;Signal;HPM_P1;HPM_P2
2022/01/21 00:04:47;;;;;;;9.10;7.18;;;;;;;;;;10438423;27;20070;-53
2022/01/21 00:09:47;;;;;;;8.02;6.47;;;;;;;;;;10444138;27;20484;-49
2022/01/21 00:14:47;;;;;;;12.07;8.55;;;;;;;;;;10436940;27;20067;-52
2022/01/21 00:19:48;;;;;;;7.60;6.20;;;;;;;;;;10439237;27;20074;-51
2022/01/21 00:30:13;;;;;;;;;;;;;;;;;;10457943;27;20508;-52
2022/01/21 00:35:13;;;;;;;12.63;7.35;;;;;;;;;;10423602;27;19923;-53
2022/01/21 00:40:14;;;;;;;10.50;8.88;;;;;;;;;;10356477;28;20063;-52
2022/01/21 00:45:15;;;;;;;11.90;7.90;;;;;;;;;;10359172;28;20080;-52
2022/01/21 00:50:15;;;;;;;10.65;6.25;;;;;;;;;;10354622;28;20082;-51
2022/01/21 00:55:14;;;;;;;9.55;7.82;;;;;;;;;;10354029;28;20079;-51
2022/01/21 01:00:13;;;;;;;8.48;5.93;;;;;;;;;;10354180;28;20086;-54
2022/01/21 01:05:12;;;;;;;7.93;6.35;;;;;;;;;;10355215;28;20508;-52
2022/01/21 01:10:18;;;;;;;9.63;6.03;;;;;;;;;;10358683;28;20504;-51
2022/01/21 01:20:34;;;;;;;7.22;5.82;;;;;;;;;;10353630;28;20084;-51
2022/01/21 01:30:49;;;;;;;9.23;6.55;;;;;;;;;;10373358;28;20079;-52
2022/01/21 01:35:47;;;;;;;7.20;6.18;;;;;;;;;;10373754;27;20043;-50
2022/01/21 01:40:52;;;;;;;7.45;5.90;;;;;;;;;;10430898;27;20106;-53
2022/01/21 01:51:05;;;;;;;7.80;6.85;;;;;;;;;;10446413;27;20492;-49
2022/01/21 01:56:07;;;;;;;7.20;6.00;;;;;;;;;;10429298;27;20085;-57
2022/01/21 02:01:05;;;;;;;10.27;6.72;;;;;;;;;;10433555;27;20093;-55
2022/01/21 02:06:04;;;;;;;8.07;5.22;;;;;;;;;;10444351;27;20101;-47
2022/01/21 02:11:03;;;;;;;9.05;7.57;;;;;;;;;;10449430;27;20070;-49
2022/01/21 02:16:07;;;;;;;8.20;6.40;;;;;;;;;;10458604;27;20070;-54
2022/01/21 02:26:29;;;;;;;7.25;6.47;;;;;;;;;;10420345;27;20072;-53
2022/01/21 02:31:28;;;;;;;7.93;6.15;;;;;;;;;;10442267;27;20125;-53
2022/01/21 02:36:28;;;;;;;10.00;8.02;;;;;;;;;;10424213;27;20065;-55
2022/01/21 02:41:27;;;;;;;7.75;6.88;;;;;;;;;;10433458;27;20083;-52
2022/01/21 02:46:26;;;;;;;8.02;6.60;;;;;;;;;;10464447;27;20492;-53
2022/01/21 02:51:26;;;;;;;9.05;7.00;;;;;;;;;;10457877;27;20040;-50
2022/01/21 02:56:25;;;;;;;9.45;7.18;;;;;;;;;;10423157;27;20078;-50
2022/01/21 03:01:25;;;;;;;7.60;6.75;;;;;;;;;;10425102;27;20085;-54
2022/01/21 03:06:24;;;;;;;8.32;7.05;;;;;;;;;;10422798;27;20051;-52
2022/01/21 03:11:24;;;;;;;12.07;7.70;;;;;;;;;;10422312;27;20520;-54
2022/01/21 03:16:24;;;;;;;8.77;6.00;;;;;;;;;;10445119;27;20457;-54
2022/01/21 03:21:22;;;;;;;7.45;6.18;;;;;;;;;;10440852;27;20081;-53
2022/01/21 03:26:22;;;;;;;7.25;6.55;;;;;;;;;;10462161;27;20085;-53
2022/01/21 03:31:25;;;;;;;7.00;6.30;;;;;;;;;;10443241;27;20046;-54
2022/01/21 03:36:24;;;;;;;9.02;7.30;;;;;;;;;;10425610;27;20066;-53
2022/01/21 03:41:23;;;;;;;7.40;6.70;;;;;;;;;;10426209;27;20089;-52
2022/01/21 03:46:22;;;;;;;6.72;5.28;;;;;;;;;;10443375;27;20108;-54
2022/01/21 03:51:22;;;;;;;9.82;7.05;;;;;;;;;;10421822;27;20043;-51
2022/01/21 03:56:21;;;;;;;6.80;6.13;;;;;;;;;;10420664;27;20517;-51
2022/01/21 04:01:23;;;;;;;7.22;6.25;;;;;;;;;;10441922;27;20456;-53
2022/01/21 04:06:24;;;;;;;8.75;5.40;;;;;;;;;;10439327;27;20085;-53
2022/01/21 04:11:23;;;;;;;16.52;11.80;;;;;;;;;;10425500;27;20083;-55
2022/01/21 04:16:21;;;;;;;17.00;10.27;;;;;;;;;;10442321;27;20085;-56
2022/01/21 04:21:21;;;;;;;14.82;9.68;;;;;;;;;;10423907;27;20641;-55
2022/01/21 04:26:21;;;;;;;18.30;10.13;;;;;;;;;;10419441;27;20035;-54
2022/01/21 04:31:20;;;;;;;7.68;6.88;;;;;;;;;;10419807;27;20488;-55
2022/01/21 04:36:21;;;;;;;8.45;7.13;;;;;;;;;;10422141;27;20393;-55
2022/01/21 04:41:38;;;;;;;9.85;7.20;;;;;;;;;;10431923;27;20603;-55
2022/01/21 04:52:03;;;;;;;10.90;8.13;;;;;;;;;;10440914;27;20270;-56
2022/01/21 04:57:20;;;;;;;18.10;9.88;;;;;;;;;;10484816;27;20078;-56
2022/01/21 05:02:21;;;;;;;10.23;8.07;;;;;;;;;;10454352;27;20097;-53
2022/01/21 05:07:24;;;;;;;10.68;7.43;;;;;;;;;;10459343;27;20135;-55
2022/01/21 05:12:25;;;;;;;6.53;5.07;;;;;;;;;;10435989;27;20046;-53
2022/01/21 05:17:28;;;;;;;7.97;6.20;;;;;;;;;;10450034;27;20047;-56
2022/01/21 05:22:26;;;;;;;7.03;5.78;;;;;;;;;;10436072;27;20086;-51
2022/01/21 05:27:25;;;;;;;6.03;5.40;;;;;;;;;;10442069;27;20534;-52
2022/01/21 05:32:24;;;;;;;7.68;5.05;;;;;;;;;;10424390;27;20514;-56
2022/01/21 05:37:41;;;;;;;5.15;4.45;;;;;;;;;;10421546;27;20059;-47
2022/01/21 05:42:49;;;;;;;4.25;3.78;;;;;;;;;;10453461;27;20484;-53
2022/01/21 05:48:13;;;;;;;5.65;4.78;;;;;;;;;;10446833;27;20123;-52
2022/01/21 05:53:32;;;;;;;14.20;9.38;;;;;;;;;;10439992;27;20055;-53
2022/01/21 05:58:56;;;;;;;11.30;8.07;;;;;;;;;;10439703;27;20066;-56
2022/01/21 06:03:54;;;;;;;8.32;6.78;;;;;;;;;;10446890;27;20066;-50
2022/01/21 06:08:55;;;;;;;7.22;6.13;;;;;;;;;;10423799;27;20078;-53
2022/01/21 06:13:53;;;;;;;11.40;5.97;;;;;;;;;;10457206;27;20066;-54
2022/01/21 06:18:52;;;;;;;6.60;5.65;;;;;;;;;;10458643;27;20095;-50
2022/01/21 06:23:50;;;;;;;6.68;5.97;;;;;;;;;;10477845;27;20058;-58
2022/01/21 06:28:50;;;;;;;7.53;6.20;;;;;;;;;;10474773;27;20720;-49
2022/01/21 06:33:48;;;;;;;8.02;6.25;;;;;;;;;;10470723;27;20499;-53
2022/01/21 06:38:46;;;;;;;12.82;10.57;;;;;;;;;;10454805;27;20082;-51
2022/01/21 06:43:45;;;;;;;8.85;7.13;;;;;;;;;;10440921;27;20103;-49
2022/01/21 06:48:44;;;;;;;9.20;7.53;;;;;;;;;;10440891;27;20492;-53
2022/01/21 06:53:43;;;;;;;8.52;6.78;;;;;;;;;;10438588;27;20067;-55
2022/01/21 06:58:41;;;;;;;7.25;6.15;;;;;;;;;;10439578;27;20078;-50
2022/01/21 07:03:39;;;;;;;12.40;8.68;;;;;;;;;;10450433;27;20530;-54
2022/01/21 07:08:39;;;;;;;18.35;10.40;;;;;;;;;;10461309;27;20059;-53
2022/01/21 07:13:37;;;;;;;8.63;6.82;;;;;;;;;;10462588;27;20063;-52
2022/01/21 07:18:35;;;;;;;11.85;8.93;;;;;;;;;;10459416;27;20054;-53
2022/01/21 07:23:34;;;;;;;12.40;9.15;;;;;;;;;;10441044;27;20092;-53
2022/01/21 07:28:33;;;;;;;15.48;8.93;;;;;;;;;;10452121;27;20062;-56
2022/01/21 07:33:31;;;;;;;21.05;12.88;;;;;;;;;;10453943;27;20075;-55
2022/01/21 07:38:30;;;;;;;17.15;10.93;;;;;;;;;;10457739;27;20095;-54
2022/01/21 07:43:28;;;;;;;12.70;8.98;;;;;;;;;;10443395;27;20070;-51
2022/01/21 07:48:28;;;;;;;12.68;8.50;;;;;;;;;;10440943;27;20081;-53
2022/01/21 07:53:26;;;;;;;14.07;10.00;;;;;;;;;;10434260;27;20493;-51
2022/01/21 07:58:25;;;;;;;10.07;7.63;;;;;;;;;;10439589;27;20070;-55
2022/01/21 08:03:23;;;;;;;14.40;8.98;;;;;;;;;;10437341;27;20508;-52
2022/01/21 08:08:24;;;;;;;19.67;12.00;;;;;;;;;;10441816;27;20074;-53
2022/01/21 08:13:22;;;;;;;20.40;11.68;;;;;;;;;;10440955;27;20066;-51
2022/01/21 08:18:20;;;;;;;16.73;13.30;;;;;;;;;;10439048;27;20063;-54
2022/01/21 08:23:19;;;;;;;18.98;12.40;;;;;;;;;;10439103;27;20385;-52
2022/01/21 08:28:18;;;;;;;22.73;13.82;;;;;;;;;;10443173;27;20062;-54
2022/01/21 08:33:17;;;;;;;21.60;11.38;;;;;;;;;;10442263;27;20486;-49
2022/01/21 08:38:15;;;;;;;16.25;10.50;;;;;;;;;;10439915;27;20070;-52
2022/01/21 08:43:14;;;;;;;33.20;25.00;;;;;;;;;;10442959;27;20066;-53
2022/01/21 08:48:13;;;;;;;14.00;10.07;;;;;;;;;;10450412;27;20066;-52
2022/01/21 08:53:36;;;;;;;19.40;12.68;;;;;;;;;;10442036;27;20069;-49
2022/01/21 08:58:31;;;;;;;14.20;9.60;;;;;;;;;;10470372;27;20127;-52
2022/01/21 09:03:31;;;;;;;13.35;8.50;;;;;;;;;;10480904;27;20078;-50
2022/01/21 09:08:30;;;;;;;12.20;8.32;;;;;;;;;;10480944;27;20054;-51
2022/01/21 09:13:30;;;;;;;13.95;8.55;;;;;;;;;;10481971;27;20042;-54
2022/01/21 09:18:34;;;;;;;14.43;6.93;;;;;;;;;;10481219;27;20281;-53
2022/01/21 09:23:54;;;;;;;14.40;9.85;;;;;;;;;;10482262;27;20537;-50
2022/01/21 09:28:53;;;;;;;12.90;7.57;;;;;;;;;;10480789;27;20043;-53
2022/01/21 09:33:51;;;;;;;16.92;8.25;;;;;;;;;;10480432;27;20420;-52
2022/01/21 09:38:49;;;;;;;20.50;10.80;;;;;;;;;;10474919;27;20085;-49
2022/01/21 09:43:50;;;;;;;10.15;6.53;;;;;;;;;;10460478;27;20063;-49
2022/01/21 09:49:06;;;;;;;7.60;6.63;;;;;;;;;;10468756;27;20089;-52
2022/01/21 09:54:06;;;;;;;9.82;6.63;;;;;;;;;;10480852;27;20073;-50
2022/01/21 09:59:05;;;;;;;13.50;8.43;;;;;;;;;;10447969;27;20067;-50
2022/01/21 10:04:05;;;;;;;11.55;8.43;;;;;;;;;;10473832;27;20071;-49
2022/01/21 10:09:03;;;;;;;15.60;10.50;;;;;;;;;;10464523;27;20047;-53
2022/01/21 10:14:02;;;;;;;15.38;9.65;;;;;;;;;;10471682;27;20069;-49
2022/01/21 10:19:03;;;;;;;12.63;9.50;;;;;;;;;;10452398;27;20069;-50
2022/01/21 10:24:05;;;;;;;11.85;7.10;;;;;;;;;;10471860;27;20515;-51
2022/01/21 10:29:04;;;;;;;8.88;5.32;;;;;;;;;;10459081;27;20062;-49
2022/01/21 10:34:05;;;;;;;14.15;6.85;;;;;;;;;;10482311;27;20039;-49
2022/01/21 10:39:10;;;;;;;14.82;9.07;;;;;;;;;;10486890;27;20082;-48
2022/01/21 10:44:09;;;;;;;8.10;6.47;;;;;;;;;;10487179;27;20490;-48
2022/01/21 10:49:09;;;;;;;31.58;16.05;;;;;;;;;;10487245;27;20069;-53
2022/01/21 10:54:15;;;;;;;42.08;27.27;;;;;;;;;;10484757;27;20416;-52
2022/01/21 10:59:13;;;;;;;22.00;13.93;;;;;;;;;;10482313;27;20093;-51
2022/01/21 11:04:13;;;;;;;26.38;12.93;;;;;;;;;;10482777;27;20174;-54
2022/01/21 11:09:19;;;;;;;8.10;5.53;;;;;;;;;;10483145;27;20463;-51
2022/01/21 11:14:18;;;;;;;8.48;5.03;;;;;;;;;;10484733;27;20053;-54
2022/01/21 11:19:28;;;;;;;7.68;4.90;;;;;;;;;;10485100;27;20046;-55
2022/01/21 11:24:27;;;;;;;13.88;7.43;;;;;;;;;;10484623;27;20096;-54
2022/01/21 11:29:25;;;;;;;15.85;7.93;;;;;;;;;;10484255;27;20051;-50
2022/01/21 11:34:25;;;;;;;13.50;8.15;;;;;;;;;;10484851;27;20141;-48
2022/01/21 11:39:24;;;;;;;8.27;5.47;;;;;;;;;;10482778;27;20511;-50
2022/01/21 11:44:24;;;;;;;9.23;6.75;;;;;;;;;;10482887;27;21116;-55
2022/01/21 11:49:25;;;;;;;10.13;6.70;;;;;;;;;;10484733;27;20039;-52
2022/01/21 11:54:25;;;;;;;12.55;6.72;;;;;;;;;;10484331;27;20047;-50
2022/01/21 11:59:30;;;;;;;14.02;5.82;;;;;;;;;;10484747;27;20047;-53
2022/01/21 12:04:28;;;;;;;;;;;;;;;;;;10483981;27;20043;-50
2022/01/21 12:09:51;;;;;;;9.48;6.70;;;;;;;;;;10484063;27;19919;-53
2022/01/21 12:14:54;;;;;;;10.40;7.22;;;;;;;;;;10452342;27;20066;-51
2022/01/21 12:20:04;;;;;;;13.23;6.75;;;;;;;;;;10464182;27;20077;-51
2022/01/21 12:25:09;;;;;;;13.95;8.90;;;;;;;;;;10463788;27;20070;-53
2022/01/21 12:30:26;;;;;;;18.83;11.37;;;;;;;;;;10479782;27;20499;-54
2022/01/21 12:35:24;;;;;;;7.82;5.28;;;;;;;;;;10474953;27;20070;-54
2022/01/21 12:40:34;;;;;;;9.82;6.50;;;;;;;;;;10470035;27;20074;-53
2022/01/21 12:45:33;;;;;;;9.20;6.07;;;;;;;;;;10465877;27;20049;-54
2022/01/21 12:50:35;;;;;;;17.70;11.68;;;;;;;;;;10459511;27;20520;-56
2022/01/21 12:56:02;;;;;;;9.23;6.18;;;;;;;;;;10440266;27;20054;-56
2022/01/21 13:01:01;;;;;;;9.43;5.78;;;;;;;;;;10468122;27;20051;-54
2022/01/21 13:06:05;;;;;;;10.48;7.25;;;;;;;;;;10439355;28;20082;-60
2022/01/21 13:11:19;;;;;;;9.95;5.53;;;;;;;;;;10476756;27;20066;-60
2022/01/21 13:16:27;;;;;;;13.73;7.03;;;;;;;;;;10457076;27;20093;-60
2022/01/21 13:21:25;;;;;;;9.63;7.00;;;;;;;;;;10481073;27;20046;-60
2022/01/21 13:26:31;;;;;;;11.45;6.20;;;;;;;;;;10489750;27;20073;-60
2022/01/21 13:31:30;;;;;;;15.95;8.32;;;;;;;;;;10489797;27;20077;-60
2022/01/21 13:36:45;;;;;;;8.00;5.25;;;;;;;;;;10477433;27;20511;-60
2022/01/21 13:41:49;;;;;;;21.40;6.47;;;;;;;;;;10469079;27;20070;-60
2022/01/21 13:46:47;;;;;;;13.23;6.63;;;;;;;;;;10473981;27;20447;-61
2022/01/21 13:51:52;;;;;;;12.75;6.78;;;;;;;;;;10478150;27;20077;-60
2022/01/21 13:56:51;;;;;;;14.30;7.95;;;;;;;;;;10451704;27;20038;-61
2022/01/21 14:01:50;;;;;;;11.13;5.95;;;;;;;;;;10489169;27;20043;-61
2022/01/21 14:06:48;;;;;;;12.30;6.63;;;;;;;;;;10489062;27;20071;-61
2022/01/21 14:11:47;;;;;;;6.30;5.45;;;;;;;;;;10487530;27;20081;-60
2022/01/21 14:16:50;;;;;;;6.82;4.68;;;;;;;;;;10465302;27;20039;-61
2022/01/21 14:21:50;;;;;;;9.50;6.25;;;;;;;;;;10487830;27;20035;-61
2022/01/21 14:26:50;;;;;;;12.60;7.63;;;;;;;;;;10487496;27;20085;-60
2022/01/21 14:31:52;;;;;;;10.65;5.15;;;;;;;;;;10475226;27;20073;-60
2022/01/21 14:36:59;;;;;;;6.18;4.25;;;;;;;;;;10482044;27;20460;-60
2022/01/21 14:41:58;;;;;;;7.25;5.90;;;;;;;;;;10445695;27;20047;-60
2022/01/21 14:47:05;;;;;;;11.38;7.45;;;;;;;;;;10444520;27;20487;-60
2022/01/21 14:52:33;;;;;;;11.00;6.60;;;;;;;;;;10447948;27;20081;-60
2022/01/21 14:57:29;;;;;;;9.65;6.43;;;;;;;;;;10478730;27;20074;-60
2022/01/21 15:02:29;;;;;;;12.07;8.05;;;;;;;;;;10479846;27;20054;-59
2022/01/21 15:07:29;;;;;;;10.45;6.82;;;;;;;;;;10481446;27;20066;-60
2022/01/21 15:17:52;;;;;;;22.38;13.63;;;;;;;;;;10485354;27;20050;-60
2022/01/21 15:22:51;;;;;;;8.25;4.85;;;;;;;;;;10485293;27;20515;-60
2022/01/21 15:27:50;;;;;;;15.88;10.35;;;;;;;;;;10484946;27;20451;-59
2022/01/21 15:32:50;;;;;;;52.85;29.40;;;;;;;;;;10485180;27;20039;-60
2022/01/21 15:37:48;;;;;;;54.20;29.08;;;;;;;;;;10483953;27;20078;-60
2022/01/21 15:42:47;;;;;;;20.73;11.00;;;;;;;;;;10479809;27;20507;-61
2022/01/21 15:47:55;;;;;;;18.80;11.15;;;;;;;;;;10484187;27;20509;-60
2022/01/21 15:52:54;;;;;;;20.45;12.32;;;;;;;;;;10484708;27;20516;-60
2022/01/21 15:57:52;;;;;;;24.50;11.73;;;;;;;;;;10481201;27;20062;-59
2022/01/21 16:02:50;;;;;;;39.08;22.10;;;;;;;;;;10474044;27;20058;-60
2022/01/21 16:07:50;;;;;;;60.25;32.85;;;;;;;;;;10472567;27;20504;-60
2022/01/21 16:12:48;;;;;;;36.03;20.98;;;;;;;;;;10454313;27;20066;-60
2022/01/21 16:17:46;;;;;;;40.85;20.00;;;;;;;;;;10455572;27;20101;-60
2022/01/21 16:22:45;;;;;;;65.97;27.40;;;;;;;;;;10481371;27;20094;-59
2022/01/21 16:27:46;;;;;;;19.58;11.48;;;;;;;;;;10481872;27;20049;-60
2022/01/21 16:32:44;;;;;;;17.73;12.57;;;;;;;;;;10473158;27;20553;-61
2022/01/21 16:37:42;;;;;;;44.47;22.88;;;;;;;;;;10479670;27;20077;-60
2022/01/21 16:42:42;;;;;;;54.05;26.42;;;;;;;;;;10481815;27;20415;-60
2022/01/21 16:47:43;;;;;;;37.05;17.63;;;;;;;;;;10481051;27;20070;-59
2022/01/21 16:52:42;;;;;;;48.63;22.65;;;;;;;;;;10480451;27;20046;-60
2022/01/21 16:57:40;;;;;;;28.02;17.15;;;;;;;;;;10476776;27;20050;-60
2022/01/21 17:02:39;;;;;;;74.30;31.10;;;;;;;;;;10477370;27;20062;-60
2022/01/21 17:07:39;;;;;;;223.15;96.32;;;;;;;;;;10453490;27;20067;-60
2022/01/21 17:12:37;;;;;;;213.13;90.72;;;;;;;;;;10480190;27;20502;-61
2022/01/21 17:17:35;;;;;;;61.88;32.00;;;;;;;;;;10481875;27;20042;-60
2022/01/21 17:22:34;;;;;;;46.53;26.58;;;;;;;;;;10462209;27;20066;-60
2022/01/21 17:27:34;;;;;;;118.47;59.80;;;;;;;;;;10478759;27;20078;-59
2022/01/21 17:32:32;;;;;;;90.32;47.28;;;;;;;;;;10480545;27;20063;-59
2022/01/21 17:37:31;;;;;;;123.47;60.60;;;;;;;;;;10466611;27;20468;-59
2022/01/21 17:42:29;;;;;;;100.05;48.55;;;;;;;;;;10480471;27;20039;-59
2022/01/21 17:47:29;;;;;;;42.45;23.75;;;;;;;;;;10479576;27;20077;-59
2022/01/21 17:52:27;;;;;;;33.58;20.13;;;;;;;;;;10457541;27;20066;-60
2022/01/21 17:57:26;;;;;;;29.35;17.45;;;;;;;;;;10451407;27;20115;-59
2022/01/21 18:02:25;;;;;;;16.38;12.50;;;;;;;;;;10454720;27;20062;-61
2022/01/21 18:07:25;;;;;;;17.67;10.55;;;;;;;;;;10445949;27;20066;-61
2022/01/21 18:12:23;;;;;;;13.95;9.70;;;;;;;;;;10453085;27;20492;-62
2022/01/21 18:17:22;;;;;;;30.13;13.77;;;;;;;;;;10464826;27;20085;-62
2022/01/21 18:22:22;;;;;;;39.40;22.40;;;;;;;;;;10460348;27;20077;-61
2022/01/21 18:27:22;;;;;;;15.98;10.13;;;;;;;;;;10472913;27;20471;-61
2022/01/21 18:32:20;;;;;;;23.85;12.70;;;;;;;;;;10464891;27;20066;-61
2022/01/21 18:37:19;;;;;;;49.10;23.52;;;;;;;;;;10446482;27;20083;-61
2022/01/21 18:42:19;;;;;;;23.20;13.43;;;;;;;;;;10456888;27;20079;-60
2022/01/21 18:47:19;;;;;;;38.40;20.98;;;;;;;;;;10453989;27;20081;-60
2022/01/21 18:52:17;;;;;;;21.88;12.95;;;;;;;;;;10450434;27;20066;-60
2022/01/21 18:57:15;;;;;;;16.98;12.00;;;;;;;;;;10450947;27;20066;-59
2022/01/21 19:02:31;;;;;;;26.27;16.88;;;;;;;;;;10461739;27;20071;-62
2022/01/21 19:07:29;;;;;;;22.55;12.90;;;;;;;;;;10461468;27;20074;-61
2022/01/21 19:12:27;;;;;;;18.35;13.60;;;;;;;;;;10463760;27;20063;-62
2022/01/21 19:17:27;;;;;;;29.80;18.75;;;;;;;;;;10451354;27;20074;-61
2022/01/21 19:22:26;;;;;;;29.10;16.40;;;;;;;;;;10454621;27;20075;-60
2022/01/21 19:27:25;;;;;;;36.22;20.52;;;;;;;;;;10462762;27;20085;-61
2022/01/21 19:32:23;;;;;;;13.20;9.20;;;;;;;;;;10460218;27;20455;-61
2022/01/21 19:37:23;;;;;;;79.30;35.88;;;;;;;;;;10458455;27;20538;-61
2022/01/21 19:42:24;;;;;;;48.05;24.58;;;;;;;;;;10465254;27;20081;-62
2022/01/21 19:47:31;;;;;;;43.65;20.90;;;;;;;;;;10454308;27;20070;-61
2022/01/21 19:52:31;;;;;;;21.83;12.60;;;;;;;;;;10455139;27;20067;-61
2022/01/21 19:57:35;;;;;;;10.30;8.05;;;;;;;;;;10450914;27;20155;-60
2022/01/21 20:05:54;;;;;;;15.27;9.25;;;;;;;;;;10458027;27;20083;-61
2022/01/21 20:13:24;;;;;;;14.93;8.63;;;;;;;;;;10465285;27;20444;-62
2022/01/21 20:18:23;;;;;;;12.23;8.88;;;;;;;;;;10450755;27;20093;-62
2022/01/21 20:23:22;;;;;;;16.17;8.38;;;;;;;;;;10461899;27;20078;-62
2022/01/21 20:28:21;;;;;;;14.73;8.82;;;;;;;;;;10459328;27;20070;-62
2022/01/21 20:33:20;;;;;;;16.15;9.73;;;;;;;;;;10469485;27;20070;-62
2022/01/21 20:38:27;;;;;;;14.83;9.23;;;;;;;;;;10427107;27;20078;-61
2022/01/21 20:43:25;;;;;;;25.20;12.65;;;;;;;;;;10448278;27;20577;-60
2022/01/21 20:48:23;;;;;;;17.85;11.50;;;;;;;;;;10461310;27;20078;-62
2022/01/21 20:53:21;;;;;;;24.75;14.43;;;;;;;;;;10451962;27;20253;-63
2022/01/21 20:58:21;;;;;;;72.47;34.00;;;;;;;;;;10448381;27;20453;-61
2022/01/21 21:03:20;;;;;;;30.40;18.83;;;;;;;;;;10442209;27;20077;-60
2022/01/21 21:08:19;;;;;;;29.90;17.95;;;;;;;;;;10457988;27;20508;-60
2022/01/21 21:13:17;;;;;;;30.17;16.30;;;;;;;;;;10451380;27;20062;-59
2022/01/21 21:18:29;;;;;;;19.38;11.48;;;;;;;;;;10451936;27;20511;-59
2022/01/21 21:28:58;;;;;;;16.08;8.43;;;;;;;;;;10448375;27;20085;-60
2022/01/21 22:49:01;;;;;;;14.98;8.50;;;;;;;;;;10437256;27;20089;-62
2022/01/21 23:04:32;;;;;;;26.65;12.40;;;;;;;;;;10455426;27;20110;-63
2022/01/21 23:09:31;;;;;;;13.18;8.13;;;;;;;;;;10449845;27;20121;-62
2022/01/21 23:14:31;;;;;;;13.90;7.65;;;;;;;;;;10453865;27;20081;-60
2022/01/21 23:19:29;;;;;;;25.38;10.68;;;;;;;;;;10448121;27;20067;-62
2022/01/21 23:24:28;;;;;;;26.52;11.68;;;;;;;;;;10455016;27;20074;-62
2022/01/21 23:29:26;;;;;;;26.05;12.55;;;;;;;;;;10437632;22;20071;-62
2022/01/21 23:34:34;;;;;;;15.18;7.68;;;;;;;;;;10382095;28;20067;-63
2022/01/21 23:40:04;;;;;;;7.88;5.07;;;;;;;;;;10364696;28;20076;-63
2022/01/21 23:45:02;;;;;;;15.30;7.43;;;;;;;;;;10340946;28;20074;-64
2022/01/21 23:50:11;;;;;;;12.35;8.23;;;;;;;;;;10360397;28;20497;-63
2022/01/21 23:55:10;;;;;;;7.35;5.22;;;;;;;;;;10376157;28;20059;-63
